createdAt,value
2023-03-19T00:02:17.008Z,13.77
2023-03-19T00:04:46.666Z,13.67
2023-03-19T00:07:15.813Z,13.20
2023-03-19T00:09:44.090Z,13.57
2023-03-19T00:12:13.007Z,12.47
2023-03-19T00:14:42.719Z,13.47
2023-03-19T00:17:11.118Z,13.87
2023-03-19T00:19:39.347Z,14.77
2023-03-19T00:22:07.551Z,13.97
2023-03-19T00:24:35.868Z,14.40
2023-03-19T00:27:04.576Z,13.80
2023-03-19T00:29:32.854Z,13.50
2023-03-19T00:32:02.440Z,13.67
2023-03-19T00:34:30.653Z,13.37
2023-03-19T00:36:59.008Z,13.20
2023-03-19T00:39:27.311Z,12.40
2023-03-19T00:41:55.533Z,12.70
2023-03-19T00:44:23.779Z,12.40
2023-03-19T00:46:51.963Z,11.87
2023-03-19T00:49:21.507Z,11.73
2023-03-19T00:51:49.680Z,11.90
2023-03-19T00:54:17.971Z,11.23
2023-03-19T00:56:46.263Z,12.50
2023-03-19T00:59:14.438Z,12.13
2023-03-19T01:01:42.773Z,12.33
2023-03-19T01:04:11.232Z,12.93
2023-03-19T01:06:40.853Z,12.50
2023-03-19T01:09:09.059Z,12.97
2023-03-19T01:11:37.328Z,12.10
2023-03-19T01:14:06.373Z,12.00
2023-03-19T01:16:35.640Z,11.33
2023-03-19T01:19:04.110Z,11.90
2023-03-19T01:21:32.327Z,12.37
2023-03-19T01:24:01.876Z,11.03
2023-03-19T01:26:30.078Z,11.40
2023-03-19T01:28:59.273Z,11.13
2023-03-19T01:31:27.520Z,11.73
2023-03-19T01:33:55.861Z,10.47
2023-03-19T01:36:24.648Z,11.10
2023-03-19T01:38:52.858Z,10.83
2023-03-19T01:41:22.559Z,11.33
2023-03-19T01:43:51.242Z,10.30
2023-03-19T01:46:23.959Z,10.40
2023-03-19T01:48:53.304Z,11.80
2023-03-19T01:51:25.061Z,10.20
2023-03-19T01:53:54.273Z,10.83
2023-03-19T01:56:25.690Z,11.60
2023-03-19T01:58:55.757Z,11.00
2023-03-19T02:01:24.528Z,13.10
2023-03-19T02:03:53.326Z,9.83
2023-03-19T02:06:22.519Z,9.70
2023-03-19T02:08:51.636Z,11.57
2023-03-19T02:11:20.326Z,11.53
2023-03-19T02:13:50.010Z,10.27
2023-03-19T02:16:18.243Z,10.43
2023-03-19T02:18:46.542Z,9.97
2023-03-19T02:21:16.565Z,12.93
2023-03-19T02:23:47.460Z,10.57
2023-03-19T02:26:17.527Z,10.27
2023-03-19T02:28:47.228Z,9.73
2023-03-19T02:31:16.022Z,10.13
2023-03-19T02:33:44.369Z,9.97
2023-03-19T02:36:17.267Z,10.27
2023-03-19T02:38:46.554Z,9.83
2023-03-19T02:41:14.756Z,10.13
2023-03-19T02:43:44.377Z,8.90
2023-03-19T02:46:13.877Z,8.83
2023-03-19T02:48:42.247Z,10.00
2023-03-19T02:51:10.588Z,9.90
2023-03-19T02:53:38.843Z,8.23
2023-03-19T02:56:07.347Z,9.07
2023-03-19T02:58:35.648Z,10.93
2023-03-19T03:01:06.364Z,9.57
2023-03-19T03:03:34.585Z,9.43
2023-03-19T03:06:02.781Z,8.90
2023-03-19T03:08:31.067Z,9.37
2023-03-19T03:10:59.252Z,9.73
2023-03-19T03:13:27.844Z,10.87
2023-03-19T03:15:56.211Z,9.47
2023-03-19T03:18:25.827Z,10.83
2023-03-19T03:20:54.503Z,10.17
2023-03-19T03:23:23.021Z,9.40
2023-03-19T03:25:52.083Z,9.43
2023-03-19T03:28:20.354Z,8.87
2023-03-19T03:30:49.077Z,8.80
2023-03-19T03:33:17.742Z,9.27
2023-03-19T03:35:47.472Z,9.73
2023-03-19T03:38:15.689Z,9.43
2023-03-19T03:40:44.033Z,8.90
2023-03-19T03:43:12.235Z,9.83
2023-03-19T03:45:40.623Z,10.30
2023-03-19T03:48:08.896Z,9.33
2023-03-19T03:50:37.147Z,10.00
2023-03-19T03:53:06.682Z,13.80
2023-03-19T03:55:34.863Z,11.10
2023-03-19T03:58:03.065Z,9.90
2023-03-19T04:00:31.571Z,10.40
2023-03-19T04:03:00.481Z,9.83
2023-03-19T04:05:28.662Z,9.37
2023-03-19T04:07:57.131Z,9.47
2023-03-19T04:10:26.685Z,10.03
2023-03-19T04:12:54.873Z,10.00
2023-03-19T04:15:23.071Z,10.77
2023-03-19T04:17:51.360Z,9.43
2023-03-19T04:20:19.602Z,10.10
2023-03-19T04:22:47.844Z,10.13
2023-03-19T04:25:16.084Z,10.90
2023-03-19T04:27:45.609Z,10.63
2023-03-19T04:30:14.579Z,10.60
2023-03-19T04:32:44.331Z,10.53
2023-03-19T04:35:12.563Z,10.37
2023-03-19T04:37:41.131Z,11.73
2023-03-19T04:40:10.130Z,10.47
2023-03-19T04:42:38.301Z,10.77
2023-03-19T04:45:08.483Z,10.00
2023-03-19T04:47:37.042Z,10.43
2023-03-19T04:50:05.556Z,10.30
2023-03-19T04:52:33.920Z,10.17
2023-03-19T04:55:02.147Z,9.90
2023-03-19T04:57:30.346Z,10.30
2023-03-19T04:59:58.549Z,11.03
2023-03-19T05:02:28.401Z,10.37
2023-03-19T05:04:56.601Z,10.80
2023-03-19T05:07:24.800Z,9.80
2023-03-19T05:09:53.006Z,10.17
2023-03-19T05:12:21.281Z,12.67
2023-03-19T05:14:49.567Z,9.93
2023-03-19T05:17:17.781Z,10.37
2023-03-19T05:19:47.356Z,10.87
2023-03-19T05:22:15.664Z,10.33
2023-03-19T05:24:43.988Z,11.63
2023-03-19T05:27:12.277Z,9.80
2023-03-19T05:29:41.091Z,10.03
2023-03-19T05:32:10.277Z,10.50
2023-03-19T05:34:38.590Z,11.37
2023-03-19T05:37:08.584Z,9.87
2023-03-19T05:39:36.964Z,10.00
2023-03-19T05:42:05.351Z,10.30
2023-03-19T05:44:33.552Z,10.47
2023-03-19T05:47:01.815Z,10.50
2023-03-19T05:49:30.163Z,12.33
2023-03-19T05:51:58.345Z,10.97
2023-03-19T05:54:28.267Z,11.73
2023-03-19T05:56:56.648Z,11.73
2023-03-19T05:59:24.878Z,10.67
2023-03-19T06:01:53.135Z,11.60
2023-03-19T06:04:21.484Z,11.83
2023-03-19T06:06:49.732Z,10.63
2023-03-19T06:09:17.989Z,10.97
2023-03-19T06:11:47.676Z,11.23
2023-03-19T06:14:16.085Z,12.70
2023-03-19T06:16:44.275Z,12.60
2023-03-19T06:19:12.492Z,10.77
2023-03-19T06:21:40.757Z,11.20
2023-03-19T06:24:09.296Z,11.73
2023-03-19T06:26:37.959Z,11.50
2023-03-19T06:29:07.651Z,12.03
2023-03-19T06:31:36.354Z,11.57
2023-03-19T06:34:04.742Z,12.03
2023-03-19T06:36:32.997Z,11.10
2023-03-19T06:39:01.578Z,11.50
2023-03-19T06:41:29.806Z,11.37
2023-03-19T06:43:58.057Z,11.13
2023-03-19T06:46:27.714Z,12.40
2023-03-19T06:48:56.043Z,13.67
2023-03-19T06:51:24.253Z,13.53
2023-03-19T06:53:52.621Z,11.33
2023-03-19T06:56:21.006Z,10.90
2023-03-19T06:58:49.234Z,11.97
2023-03-19T07:01:17.537Z,10.70
2023-03-19T07:03:47.188Z,9.70
2023-03-19T07:06:15.444Z,9.63
2023-03-19T07:08:46.308Z,8.87
2023-03-19T07:11:15.694Z,8.60
2023-03-19T07:13:44.010Z,8.60
2023-03-19T07:16:12.241Z,8.60
2023-03-19T07:18:40.699Z,7.67
2023-03-19T07:21:10.350Z,8.70
2023-03-19T07:23:38.560Z,8.23
2023-03-19T07:26:06.974Z,8.27
2023-03-19T07:28:35.654Z,10.00
2023-03-19T07:31:03.918Z,8.37
2023-03-19T07:33:32.206Z,9.37
2023-03-19T07:36:00.696Z,9.37
2023-03-19T07:38:30.597Z,7.80
2023-03-19T07:41:02.800Z,7.23
2023-03-19T07:43:31.378Z,7.87
2023-03-19T07:45:59.691Z,9.07
2023-03-19T07:48:27.939Z,8.37
2023-03-19T07:50:56.228Z,7.60
2023-03-19T07:53:24.486Z,8.83
2023-03-19T07:55:54.089Z,7.33
2023-03-19T07:58:22.457Z,7.80
2023-03-19T08:00:50.858Z,8.93
2023-03-19T08:03:19.196Z,8.10
2023-03-19T08:05:49.580Z,9.07
2023-03-19T08:08:19.154Z,8.30
2023-03-19T08:10:47.984Z,8.50
2023-03-19T08:13:17.689Z,9.50
2023-03-19T08:15:45.938Z,9.27
2023-03-19T08:18:14.124Z,8.70
2023-03-19T08:20:42.371Z,10.87
2023-03-19T08:23:10.650Z,10.13
2023-03-19T08:25:39.105Z,8.50
2023-03-19T08:28:07.542Z,10.17
2023-03-19T08:30:37.606Z,8.70
2023-03-19T08:33:06.191Z,8.60
2023-03-19T08:35:34.546Z,8.90
2023-03-19T08:38:02.795Z,11.27
2023-03-19T08:40:31.018Z,8.57
2023-03-19T08:42:59.257Z,9.17
2023-03-19T08:45:27.519Z,9.23
2023-03-19T08:47:58.992Z,10.03
2023-03-19T08:50:27.527Z,10.13
2023-03-19T08:52:56.388Z,10.87
2023-03-19T08:55:24.704Z,8.53
2023-03-19T08:57:52.924Z,10.17
2023-03-19T09:00:21.598Z,8.80
2023-03-19T09:02:49.903Z,10.13
2023-03-19T09:05:22.305Z,9.80
2023-03-19T09:07:51.928Z,10.07
2023-03-19T09:10:20.155Z,9.30
2023-03-19T09:12:48.676Z,9.53
2023-03-19T09:15:17.042Z,9.70
2023-03-19T09:17:45.489Z,9.70
2023-03-19T09:20:14.092Z,11.00
2023-03-19T09:22:43.696Z,10.33
2023-03-19T09:25:11.962Z,10.30
2023-03-19T09:27:40.314Z,9.97
2023-03-19T09:30:10.439Z,11.50
2023-03-19T09:32:38.688Z,11.03
2023-03-19T09:35:07.519Z,11.13
2023-03-19T09:37:35.999Z,10.03
2023-03-19T09:40:06.101Z,10.57
2023-03-19T09:42:46.595Z,10.00
2023-03-19T09:45:16.632Z,10.63
2023-03-19T09:47:45.367Z,11.03
2023-03-19T09:50:15.031Z,10.00
2023-03-19T09:52:45.818Z,10.77
2023-03-19T09:55:22.044Z,10.23
2023-03-19T09:57:50.409Z,8.87
2023-03-19T10:00:23.644Z,9.13
2023-03-19T10:02:55.484Z,13.97
2023-03-19T10:05:27.030Z,9.67
2023-03-19T10:08:05.412Z,9.07
2023-03-19T10:10:44.037Z,10.30
2023-03-19T10:13:15.351Z,10.43
2023-03-19T10:15:45.310Z,10.23
2023-03-19T10:18:18.006Z,11.37
2023-03-19T10:20:48.234Z,11.33
2023-03-19T10:23:26.143Z,10.77
2023-03-19T10:25:56.826Z,9.90
2023-03-19T10:28:25.135Z,10.23
2023-03-19T10:30:58.263Z,10.83
2023-03-19T10:33:27.388Z,10.73
2023-03-19T10:35:59.687Z,10.33
2023-03-19T10:38:28.573Z,11.73
2023-03-19T10:41:05.973Z,10.60
2023-03-19T10:43:35.704Z,10.70
2023-03-19T10:46:04.034Z,9.80
2023-03-19T10:48:33.390Z,10.73
2023-03-19T10:51:02.616Z,10.30
2023-03-19T10:53:33.518Z,10.03
2023-03-19T10:56:03.349Z,9.97
2023-03-19T10:58:33.896Z,9.57
2023-03-19T11:01:05.776Z,8.83
2023-03-19T11:03:34.985Z,8.70
2023-03-19T11:06:08.335Z,8.13
2023-03-19T11:08:37.986Z,7.27
2023-03-19T11:11:06.648Z,7.40
2023-03-19T11:13:37.206Z,7.33
2023-03-19T11:16:05.884Z,7.50
2023-03-19T11:18:38.450Z,6.90
2023-03-19T11:21:08.455Z,7.20
2023-03-19T11:23:40.193Z,7.00
2023-03-19T11:26:09.991Z,6.47
2023-03-19T11:28:40.131Z,8.10
2023-03-19T11:31:13.118Z,7.17
2023-03-19T11:33:47.267Z,6.60
2023-03-19T11:36:19.783Z,7.43
2023-03-19T11:38:56.443Z,7.40
2023-03-19T11:41:29.205Z,8.10
2023-03-19T11:44:00.821Z,7.13
2023-03-19T11:46:32.632Z,6.60
2023-03-19T11:49:09.976Z,7.10
2023-03-19T11:51:42.892Z,7.07
2023-03-19T11:54:15.369Z,8.50
2023-03-19T11:56:46.986Z,6.30
2023-03-19T11:59:23.874Z,7.30
2023-03-19T12:02:09.600Z,7.73
2023-03-19T12:04:51.291Z,6.77
2023-03-19T12:07:23.671Z,5.93
2023-03-19T12:09:57.361Z,5.83
2023-03-19T12:12:28.345Z,6.40
2023-03-19T12:15:06.472Z,6.00
2023-03-19T12:17:43.886Z,11.53
2023-03-19T12:20:17.201Z,6.47
2023-03-19T12:22:50.752Z,6.73
2023-03-19T12:25:25.487Z,6.70
2023-03-19T12:27:56.888Z,6.70
2023-03-19T12:30:31.857Z,6.70
2023-03-19T12:33:07.227Z,6.93
2023-03-19T12:35:36.454Z,7.63
2023-03-19T12:38:07.627Z,7.10
2023-03-19T12:40:38.170Z,7.17
2023-03-19T12:43:08.280Z,6.90
2023-03-19T12:45:40.561Z,6.97
2023-03-19T12:48:12.318Z,7.70
2023-03-19T12:50:42.393Z,6.47
2023-03-19T12:53:13.198Z,6.53
2023-03-19T12:55:43.270Z,7.30
2023-03-19T12:58:16.293Z,7.33
2023-03-19T13:00:49.982Z,7.63
2023-03-19T13:03:19.904Z,7.50
2023-03-19T13:05:49.660Z,8.27
2023-03-19T13:08:20.899Z,7.60
2023-03-19T13:10:49.226Z,7.97
2023-03-19T13:13:24.774Z,7.50
2023-03-19T13:15:56.849Z,7.90
2023-03-19T13:18:31.397Z,7.23
2023-03-19T13:21:07.658Z,6.73
2023-03-19T13:23:38.340Z,8.10
2023-03-19T13:26:09.664Z,6.50
2023-03-19T13:28:38.977Z,5.60
2023-03-19T13:31:09.798Z,4.90
2023-03-19T13:33:38.684Z,5.10
2023-03-19T13:36:07.823Z,4.37
2023-03-19T13:38:40.067Z,2.93
2023-03-19T13:41:28.476Z,3.33
2023-03-19T13:43:58.187Z,3.90
2023-03-19T13:46:40.732Z,4.13
2023-03-19T13:49:33.518Z,4.18
2023-03-19T13:52:04.025Z,3.72
2023-03-19T13:54:40.305Z,3.80
2023-03-19T13:57:19.448Z,3.50
2023-03-19T13:59:50.827Z,4.55
2023-03-19T14:02:37.735Z,3.90
2023-03-19T14:05:10.423Z,3.67
2023-03-19T14:07:40.388Z,4.82
2023-03-19T14:10:09.645Z,4.03
2023-03-19T14:12:38.710Z,4.03
2023-03-19T14:15:18.270Z,3.90
2023-03-19T14:17:48.070Z,3.80
2023-03-19T14:20:31.457Z,3.47
2023-03-19T14:23:39.481Z,4.22
2023-03-19T14:26:12.999Z,3.88
2023-03-19T14:28:47.124Z,4.53
2023-03-19T14:31:23.411Z,4.18
2023-03-19T14:33:54.175Z,4.40
2023-03-19T14:36:22.807Z,4.30
2023-03-19T14:38:52.579Z,4.22
2023-03-19T14:41:22.056Z,4.18
2023-03-19T14:43:57.754Z,4.50
2023-03-19T14:46:30.843Z,3.92
2023-03-19T14:49:28.969Z,4.35
2023-03-19T14:52:00.539Z,3.97
2023-03-19T14:54:32.589Z,3.67
2023-03-19T14:57:07.620Z,4.45
2023-03-19T14:59:40.061Z,4.40
2023-03-19T15:02:19.575Z,4.07
2023-03-19T15:04:48.543Z,4.35
2023-03-19T15:07:20.591Z,4.68
2023-03-19T15:09:51.646Z,4.32
2023-03-19T15:12:37.863Z,4.10
2023-03-19T15:15:15.162Z,4.70
2023-03-19T15:17:51.633Z,4.50
2023-03-19T15:20:26.422Z,4.60
2023-03-19T15:22:58.089Z,4.00
2023-03-19T15:25:26.987Z,4.32
2023-03-19T15:28:16.268Z,4.65
2023-03-19T15:30:54.867Z,6.85
2023-03-19T15:33:40.159Z,4.55
2023-03-19T15:36:12.009Z,4.65
2023-03-19T15:38:42.041Z,6.13
2023-03-19T15:41:12.106Z,5.18
2023-03-19T15:43:41.326Z,4.50
2023-03-19T15:46:12.007Z,5.43
2023-03-19T15:48:44.596Z,5.80
2023-03-19T15:51:14.498Z,4.72
2023-03-19T15:53:43.065Z,4.93
2023-03-19T15:56:11.434Z,5.97
2023-03-19T15:58:41.423Z,4.65
2023-03-19T16:01:11.131Z,5.10
2023-03-19T16:03:40.597Z,8.07
2023-03-19T16:06:15.520Z,7.53
2023-03-19T16:08:48.224Z,5.03
2023-03-19T16:11:30.267Z,6.05
2023-03-19T16:13:59.732Z,6.45
2023-03-19T16:16:30.633Z,6.30
2023-03-19T16:18:59.464Z,4.75
2023-03-19T16:21:36.052Z,4.65
2023-03-19T16:24:05.216Z,4.95
2023-03-19T16:26:38.464Z,4.85
2023-03-19T16:29:19.517Z,5.28
2023-03-19T16:31:51.736Z,4.80
2023-03-19T16:34:34.872Z,4.95
2023-03-19T16:37:04.604Z,4.40
2023-03-19T16:39:37.018Z,3.10
2023-03-19T16:42:23.212Z,2.60
2023-03-19T16:44:51.638Z,3.90
2023-03-19T16:47:19.823Z,3.28
2023-03-19T16:49:48.615Z,4.78
2023-03-19T16:52:19.489Z,5.28
2023-03-19T16:54:48.237Z,5.30
2023-03-19T16:57:17.924Z,5.85
2023-03-19T16:59:46.589Z,3.88
2023-03-19T17:02:15.471Z,3.85
2023-03-19T17:04:43.856Z,4.60
2023-03-19T17:07:12.345Z,4.22
2023-03-19T17:09:42.082Z,3.65
2023-03-19T17:12:14.641Z,3.75
2023-03-19T17:14:42.974Z,4.07
2023-03-19T17:17:17.852Z,5.17
2023-03-19T17:19:46.814Z,5.13
2023-03-19T17:22:15.115Z,5.45
2023-03-19T17:24:44.948Z,6.00
2023-03-19T17:27:13.252Z,7.90
2023-03-19T17:29:41.555Z,8.13
2023-03-19T17:32:15.191Z,6.83
2023-03-19T17:34:43.439Z,8.50
2023-03-19T17:37:14.286Z,9.20
2023-03-19T17:39:43.324Z,7.40
2023-03-19T17:42:18.968Z,10.77
2023-03-19T17:44:47.215Z,9.83
2023-03-19T17:47:15.674Z,9.93
2023-03-19T17:49:45.079Z,10.63
2023-03-19T17:52:15.657Z,8.87
2023-03-19T17:54:43.928Z,10.63
2023-03-19T17:57:18.496Z,9.87
2023-03-19T17:59:48.128Z,9.90
2023-03-19T18:02:24.666Z,12.73
2023-03-19T18:04:52.991Z,11.70
2023-03-19T18:07:21.211Z,13.87
2023-03-19T18:09:49.476Z,18.63
2023-03-19T18:12:17.779Z,17.53
2023-03-19T18:14:46.084Z,13.33
2023-03-19T18:17:17.899Z,15.43
2023-03-19T18:19:47.140Z,14.37
2023-03-19T18:22:16.530Z,14.70
2023-03-19T18:24:44.960Z,15.57
2023-03-19T18:27:14.611Z,16.00
2023-03-19T18:29:42.822Z,14.27
2023-03-19T18:32:15.506Z,14.00
2023-03-19T18:34:45.289Z,15.40
2023-03-19T18:37:16.653Z,16.60
2023-03-19T18:39:44.863Z,14.13
2023-03-19T18:42:14.150Z,14.93
2023-03-19T18:44:42.390Z,15.70
2023-03-19T18:47:14.194Z,15.00
2023-03-19T18:49:42.573Z,21.00
2023-03-19T18:52:15.893Z,15.27
2023-03-19T18:54:46.775Z,15.87
2023-03-19T18:57:15.704Z,17.50
2023-03-19T18:59:44.125Z,17.23
2023-03-19T19:02:21.370Z,17.30
2023-03-19T19:04:49.858Z,19.57
2023-03-19T19:07:19.476Z,20.10
2023-03-19T19:09:47.699Z,21.40
2023-03-19T19:12:18.959Z,26.97
2023-03-19T19:14:47.592Z,24.27
2023-03-19T19:17:17.805Z,25.33
2023-03-19T19:19:46.121Z,24.60
2023-03-19T19:22:16.417Z,26.00
2023-03-19T19:24:46.116Z,24.00
2023-03-19T19:27:18.114Z,23.20
2023-03-19T19:29:46.342Z,23.37
2023-03-19T19:32:19.907Z,23.03
2023-03-19T19:34:48.163Z,22.50
2023-03-19T19:37:18.573Z,22.50
2023-03-19T19:39:48.277Z,23.10
2023-03-19T19:42:17.874Z,23.47
2023-03-19T19:44:47.886Z,21.87
2023-03-19T19:47:16.576Z,23.53
2023-03-19T19:49:45.353Z,22.37
2023-03-19T19:52:14.716Z,22.33
2023-03-19T19:54:43.046Z,20.80
2023-03-19T19:57:18.462Z,23.73
2023-03-19T19:59:46.770Z,19.87
2023-03-19T20:02:21.576Z,20.60
2023-03-19T20:04:49.896Z,19.77
2023-03-19T20:07:18.154Z,18.97
2023-03-19T20:09:46.605Z,18.63
2023-03-19T20:12:24.873Z,22.47
2023-03-19T20:14:53.337Z,23.17
2023-03-19T20:17:22.143Z,20.27
2023-03-19T20:19:50.853Z,17.43
2023-03-19T20:22:19.059Z,19.90
2023-03-19T20:24:50.407Z,16.70
2023-03-19T20:27:22.807Z,23.33
2023-03-19T20:29:53.590Z,18.93
2023-03-19T20:32:31.628Z,19.70
2023-03-19T20:35:00.617Z,22.73
2023-03-19T20:37:29.162Z,19.40
2023-03-19T20:39:57.636Z,21.57
2023-03-19T20:42:28.695Z,21.13
2023-03-19T20:44:59.832Z,20.20
2023-03-19T20:47:28.119Z,18.37
2023-03-19T20:49:56.356Z,17.27
2023-03-19T20:52:25.469Z,19.97
2023-03-19T20:54:54.044Z,20.90
2023-03-19T20:57:29.051Z,20.43
2023-03-19T20:59:59.216Z,17.30
2023-03-19T21:02:28.389Z,19.37
2023-03-19T21:04:56.802Z,19.97
2023-03-19T21:07:29.682Z,20.37
2023-03-19T21:09:58.617Z,18.57
2023-03-19T21:12:29.289Z,23.83
2023-03-19T21:14:59.197Z,22.83
2023-03-19T21:17:28.629Z,20.93
2023-03-19T21:19:57.489Z,23.67
2023-03-19T21:22:28.387Z,18.80
2023-03-19T21:25:03.284Z,18.67
2023-03-19T21:27:32.075Z,20.03
2023-03-19T21:30:01.830Z,17.87
2023-03-19T21:32:30.226Z,19.93
2023-03-19T21:34:58.560Z,23.90
2023-03-19T21:37:26.822Z,19.67
2023-03-19T21:39:55.060Z,20.97
2023-03-19T21:42:23.856Z,20.87
2023-03-19T21:44:57.341Z,19.90
2023-03-19T21:47:27.425Z,21.27
2023-03-19T21:49:56.425Z,20.10
2023-03-19T21:52:24.830Z,21.00
2023-03-19T21:54:53.961Z,20.83
2023-03-19T21:57:22.213Z,18.87
2023-03-19T21:59:50.571Z,19.77
2023-03-19T22:02:36.717Z,21.03
2023-03-19T22:05:12.553Z,22.73
2023-03-19T22:07:41.231Z,21.17
2023-03-19T22:10:09.957Z,20.50
2023-03-19T22:12:38.453Z,21.50
2023-03-19T22:15:07.275Z,23.00
2023-03-19T22:17:35.517Z,22.00
2023-03-19T22:20:04.534Z,19.97
2023-03-19T22:22:34.174Z,20.73
2023-03-19T22:25:02.426Z,19.33
2023-03-19T22:27:30.687Z,18.83
2023-03-19T22:29:59.568Z,20.93
2023-03-19T22:32:27.788Z,18.00
2023-03-19T22:34:56.098Z,20.37
2023-03-19T22:37:26.689Z,19.73
2023-03-19T22:39:56.480Z,17.63
2023-03-19T22:42:26.075Z,19.33
2023-03-19T22:44:54.899Z,20.20
2023-03-19T22:47:24.101Z,23.20
2023-03-19T22:49:52.308Z,23.50
2023-03-19T22:52:20.508Z,23.37
2023-03-19T22:54:52.949Z,24.30
2023-03-19T22:57:22.546Z,25.47
2023-03-19T22:59:51.311Z,25.50
2023-03-19T23:02:19.635Z,22.13
2023-03-19T23:04:47.911Z,21.70
2023-03-19T23:07:16.195Z,22.37
2023-03-19T23:09:44.379Z,21.53
2023-03-19T23:12:13.606Z,23.27
2023-03-19T23:14:43.146Z,26.83
2023-03-19T23:17:17.352Z,27.77
2023-03-19T23:19:45.612Z,24.77
2023-03-19T23:22:16.566Z,26.37
2023-03-19T23:24:45.288Z,26.07
2023-03-19T23:27:21.216Z,29.47
2023-03-19T23:29:51.032Z,28.13
2023-03-19T23:32:19.239Z,30.50
2023-03-19T23:34:59.195Z,32.10
2023-03-19T23:37:28.682Z,33.70
2023-03-19T23:39:57.619Z,29.83
2023-03-19T23:42:28.622Z,31.20
2023-03-19T23:44:59.746Z,29.27
2023-03-19T23:47:28.541Z,29.30
2023-03-19T23:49:56.927Z,32.30
2023-03-19T23:52:25.350Z,32.57
2023-03-19T23:54:53.695Z,31.73
2023-03-19T23:57:22.724Z,30.50
2023-03-19T23:59:51.656Z,32.20
